Time;durP1;ratioP1;P1;durP2;ratioP2;P2;SDS_P1;SDS_P2;PMS_P1;PMS_P2;Temp;Humidity;BMP_temperature;BMP_pressure;BME280_temperature;BME280_humidity;BME280_pressure;Samples;Min_cycle;Max_cycle;Signal;HPM_P1;HPM_P2
2023/07/01 00:09:36;;;;;;;0.63;0.50;;;;;;;;;;20687889;28;20235;-66
2023/07/01 00:19:38;;;;;;;1.00;0.50;;;;;;;;;;20687380;28;20276;-66
2023/07/01 00:29:40;;;;;;;0.95;0.68;;;;;;;;;;20765624;28;20228;-66
2023/07/01 00:39:42;;;;;;;1.27;0.80;;;;;;;;;;20802707;28;20292;-66
2023/07/01 00:49:44;;;;;;;1.63;0.90;;;;;;;;;;20731311;28;20601;-66
2023/07/01 00:59:46;;;;;;;0.70;0.50;;;;;;;;;;20700359;28;20277;-66
2023/07/01 01:10:00;;;;;;;2.60;0.77;;;;;;;;;;20699196;28;20705;-66
2023/07/01 01:20:22;;;;;;;2.40;0.67;;;;;;;;;;20698554;28;20222;-67
2023/07/01 01:30:24;;;;;;;0.83;0.60;;;;;;;;;;20710798;28;20296;-66
2023/07/01 01:40:29;;;;;;;1.30;0.60;;;;;;;;;;20765408;28;20276;-66
2023/07/01 01:50:33;;;;;;;0.50;0.40;;;20.40;99.90;;;;;;20712254;28;20234;-66
2023/07/01 02:00:35;;;;;;;0.40;0.30;;;20.60;99.90;;;;;;20664712;28;20293;-66
2023/07/01 02:10:37;;;;;;;2.33;0.70;;;;;;;;;;20695353;28;20261;-66
2023/07/01 02:20:38;;;;;;;0.60;0.43;;;;;;;;;;20735803;28;20309;-66
2023/07/01 02:30:40;;;;;;;0.83;0.60;;;;;;;;;;20731001;28;20225;-66
2023/07/01 02:40:42;;;;;;;1.10;0.70;;;;;;;;;;20824888;22;20316;-73
2023/07/01 02:50:44;;;;;;;0.70;0.50;;;;;;;;;;20933745;28;20286;-73
2023/07/01 03:00:46;;;;;;;1.97;0.70;;;;;;;;;;20877629;28;20221;-74
2023/07/01 03:10:48;;;;;;;1.17;0.47;;;;;;;;;;20879321;28;20223;-73
2023/07/01 03:20:50;;;;;;;1.20;0.60;;;;;;;;;;20866998;28;20232;-73
2023/07/01 03:30:51;;;;;;;1.00;0.70;;;;;;;;;;20873814;28;20279;-72
2023/07/01 03:40:53;;;;;;;0.73;0.50;;;;;;;;;;20884657;28;20706;-72
2023/07/01 03:50:55;;;;;;;1.13;0.60;;;;;;;;;;20889457;28;20253;-72
2023/07/01 04:00:57;;;;;;;1.40;0.63;;;;;;;;;;20877757;28;20223;-72
2023/07/01 04:10:59;;;;;;;1.27;0.60;;;;;;;;;;20887216;28;20226;-72
2023/07/01 04:21:00;;;;;;;1.50;0.60;;;;;;;;;;20863681;28;20262;-70
2023/07/01 04:31:02;;;;;;;0.80;0.50;;;;;;;;;;20851853;28;20818;-69
2023/07/01 04:41:05;;;;;;;0.87;0.63;;;;;;;;;;20893990;28;20279;-69
2023/07/01 04:51:07;;;;;;;0.40;0.40;;;;;;;;;;20897648;28;20221;-69
2023/07/01 05:01:09;;;;;;;1.43;0.53;;;;;;;;;;20851535;28;20710;-68
2023/07/01 05:11:13;;;;;;;0.87;0.50;;;;;;;;;;20893638;28;20278;-68
2023/07/01 05:21:15;;;;;;;0.70;0.50;;;;;;;;;;20900328;28;20207;-68
2023/07/01 05:31:17;;;;;;;0.87;0.50;;;;;;;;;;20882828;28;20235;-69
2023/07/01 05:41:19;;;;;;;1.30;0.60;;;;;;;;;;20884386;28;20299;-73
2023/07/01 05:51:21;;;;;;;1.63;0.63;;;;;;;;;;20857084;28;20227;-73
2023/07/01 06:01:23;;;;;;;0.50;0.40;;;;;;;;;;20858509;28;20273;-72
2023/07/01 06:11:24;;;;;;;0.73;0.60;;;;;;;;;;20890014;28;20232;-73
2023/07/01 06:21:26;;;;;;;0.60;0.40;;;;;;;;;;20854058;28;20244;-71
2023/07/01 06:31:29;;;;;;;0.80;0.67;;;;;;;;;;20836668;28;20252;-71
2023/07/01 06:41:31;;;;;;;1.63;0.70;;;;;;;;;;20878951;28;20215;-70
2023/07/01 06:51:33;;;;;;;1.17;0.50;;;;;;;;;;20826765;28;20222;-70
2023/07/01 07:01:34;;;;;;;0.60;0.40;;;;;;;;;;20817290;28;20276;-72
2023/07/01 07:11:36;;;;;;;2.13;0.60;;;;;;;;;;20815784;28;20282;-73
2023/07/01 07:21:37;;;;;;;1.13;0.87;;;;;;;;;;20845110;28;20265;-70
2023/07/01 07:31:39;;;;;;;1.07;0.67;;;;;;;;;;20882569;28;20580;-70
2023/07/01 07:41:41;;;;;;;3.50;0.60;;;;;;;;;;20884975;28;20223;-70
2023/07/01 07:51:43;;;;;;;1.00;0.40;;;;;;;;;;20896800;28;20290;-70
2023/07/01 08:01:46;;;;;;;1.30;0.50;;;;;;;;;;20882861;28;20238;-68
2023/07/01 08:11:48;;;;;;;0.90;0.53;;;;;;;;;;20867081;28;20214;-69
2023/07/01 08:21:50;;;;;;;1.47;0.50;;;;;;;;;;20849833;28;20758;-69
2023/07/01 08:31:51;;;;;;;1.43;0.67;;;;;;;;;;20853876;28;20221;-69
2023/07/01 08:41:57;;;;;;;0.93;0.53;;;;;;;;;;20852819;28;20279;-71
2023/07/01 08:52:05;;;;;;;0.70;0.40;;;;;;;;;;20868186;22;20223;-76
2023/07/01 09:02:07;;;;;;;6.57;1.30;;;;;;;;;;20830225;28;20291;-75
2023/07/01 09:12:10;;;;;;;0.87;0.50;;;;;;;;;;20856852;28;20973;-75
2023/07/01 09:22:12;;;;;;;1.40;0.50;;;;;;;;;;20817105;28;20291;-75
2023/07/01 09:32:28;;;;;;;2.00;0.40;;;22.50;99.90;;;;;;20815574;28;20309;-76
2023/07/01 09:42:30;;;;;;;1.07;0.50;;;;;;;;;;20823656;28;20229;-71
2023/07/01 09:52:36;;;;;;;1.57;0.57;;;;;;;;;;20808438;28;20223;-74
2023/07/01 10:02:37;;;;;;;1.20;0.50;;;;;;;;;;20795180;28;20363;-75
2023/07/01 10:12:44;;;;;;;1.10;0.60;;;22.60;99.90;;;;;;20797503;28;20242;-74
2023/07/01 10:22:53;;;;;;;2.50;0.60;;;;;;;;;;20819728;28;20265;-74
2023/07/01 10:32:55;;;;;;;2.77;0.80;;;;;;;;;;20804145;28;20252;-74
2023/07/01 10:43:15;;;;;;;1.13;0.60;;;;;;;;;;20787579;28;20210;-74
2023/07/01 10:53:17;;;;;;;1.53;0.50;;;;;;;;;;20828787;28;20223;-74
2023/07/01 11:03:36;;;;;;;0.53;0.40;;;22.60;99.00;;;;;;20817544;28;20299;-74
2023/07/01 11:13:38;;;;;;;5.35;1.23;;;;;;;;;;20790341;28;20329;-74
2023/07/01 11:23:41;;;;;;;1.00;0.43;;;;;;;;;;20797779;28;20621;-73
2023/07/01 11:33:47;;;;;;;1.17;0.50;;;;;;;;;;20788059;28;20313;-76
2023/07/01 11:43:49;;;;;;;17.00;10.15;;;;;;;;;;20808682;28;20212;-76
2023/07/01 11:53:57;;;;;;;3.10;1.80;;;;;;;;;;20809656;28;20236;-75
2023/07/01 12:03:59;;;;;;;8.33;5.57;;;;;;;;;;20787332;28;20218;-76
2023/07/01 12:14:17;;;;;;;1.60;0.80;;;23.00;99.90;;;;;;20773416;28;20328;-75
2023/07/01 12:24:25;;;;;;;1.33;0.80;;;;;;;;;;20796167;28;20241;-74
2023/07/01 12:34:26;;;;;;;0.80;0.50;;;;;;;;;;20809203;28;20221;-77
2023/07/01 12:44:29;;;;;;;2.13;0.90;;;;;;;;;;20813649;28;20291;-75
2023/07/01 12:54:33;;;;;;;2.28;0.52;;;;;;;;;;20814135;28;20754;-76
2023/07/01 13:04:35;;;;;;;0.40;0.30;;;;;;;;;;20775613;28;20222;-76
2023/07/01 13:14:37;;;;;;;0.75;0.40;;;;;;;;;;20820196;28;20228;-76
2023/07/01 13:24:40;;;;;;;0.80;0.40;;;;;;;;;;20802992;28;20258;-76
2023/07/01 13:34:43;;;;;;;2.40;0.60;;;23.20;99.90;;;;;;20758331;28;20226;-76
2023/07/01 13:44:49;;;;;;;1.58;0.57;;;23.20;99.90;;;;;;20813199;28;20210;-76
2023/07/01 13:54:51;;;;;;;1.13;0.43;;;;;;;;;;20821270;28;20290;-77
2023/07/01 14:04:53;;;;;;;2.70;0.40;;;;;;;;;;20820654;28;20244;-76
2023/07/01 14:14:54;;;;;;;1.20;0.40;;;;;;;;;;20802230;28;20218;-76
2023/07/01 14:24:56;;;;;;;0.65;0.40;;;;;;;;;;20818176;28;20232;-75
2023/07/01 14:34:59;;;;;;;0.55;0.32;;;;;;;;;;20787285;28;20229;-76
2023/07/01 14:45:01;;;;;;;0.40;0.30;;;;;;;;;;20809191;28;20267;-75
2023/07/01 14:55:03;;;;;;;0.30;0.30;;;;;;;;;;20831391;23;20232;-64
2023/07/01 15:05:05;;;;;;;0.50;0.30;;;23.20;99.90;;;;;;20817088;28;20650;-65
2023/07/01 15:15:08;;;;;;;1.27;0.32;;;23.10;99.90;;;;;;20835244;28;20723;-64
2023/07/01 15:25:09;;;;;;;0.77;0.40;;;;;;;;;;20771751;28;20235;-64
2023/07/01 15:35:11;;;;;;;0.30;0.30;;;;;;;;;;20839706;28;20287;-64
2023/07/01 15:45:13;;;;;;;0.40;0.23;;;22.90;99.90;;;;;;20805394;28;20210;-65
2023/07/01 15:55:15;;;;;;;0.53;0.30;;;;;;;;;;20782581;28;20225;-65
2023/07/01 16:05:23;;;;;;;0.20;0.20;;;23.00;99.90;;;;;;20766215;28;20226;-65
2023/07/01 16:15:28;;;;;;;0.33;0.30;;;23.00;99.90;;;;;;20765147;28;20577;-64
2023/07/01 16:25:30;;;;;;;0.20;0.20;;;;;;;;;;20766595;28;20221;-63
2023/07/01 16:35:50;;;;;;;0.37;0.23;;;;;;;;;;20794777;28;20224;-64
2023/07/01 16:45:53;;;;;;;0.60;0.40;;;23.00;99.90;;;;;;20842550;28;20801;-64
2023/07/01 16:55:57;;;;;;;0.20;0.20;;;23.00;99.90;;;;;;20814002;28;20230;-65
2023/07/01 17:06:05;;;;;;;0.37;0.30;;;;;;;;;;20864494;28;20214;-64
2023/07/01 17:16:06;;;;;;;0.20;0.20;;;23.40;99.90;;;;;;20847924;28;20233;-64
2023/07/01 17:26:08;;;;;;;0.40;0.40;;;;;;;;;;20860239;28;20231;-64
2023/07/01 17:36:10;;;;;;;0.20;0.20;;;;;;;;;;20871876;28;20234;-64
2023/07/01 17:46:12;;;;;;;0.30;0.30;;;;;;;;;;20836704;28;20287;-65
2023/07/01 17:56:15;;;;;;;0.43;0.30;;;;;;;;;;20874584;28;20275;-64
2023/07/01 18:06:20;;;;;;;0.30;0.20;;;22.50;99.90;;;;;;20873100;28;20224;-64
2023/07/01 18:16:22;;;;;;;0.30;0.30;;;;;;;;;;20865690;28;20230;-64
2023/07/01 18:26:24;;;;;;;0.40;0.30;;;22.40;99.90;;;;;;20863389;28;21090;-64
2023/07/01 18:36:26;;;;;;;1.43;0.30;;;;;;;;;;20834882;28;20844;-64
2023/07/01 18:46:28;;;;;;;0.30;0.27;;;;;;;;;;20788058;28;20231;-64
2023/07/01 18:56:30;;;;;;;0.67;0.40;;;;;;;;;;20771349;28;20275;-64
2023/07/01 19:06:31;;;;;;;0.37;0.30;;;;;;;;;;20878312;28;20265;-64
2023/07/01 19:16:33;;;;;;;1.60;0.53;;;;;;;;;;20851849;28;20248;-64
2023/07/01 19:26:35;;;;;;;0.60;0.30;;;;;;;;;;20838767;28;20784;-64
2023/07/01 19:36:43;;;;;;;0.63;0.30;;;;;;;;;;20810865;28;20225;-64
2023/07/01 19:46:45;;;;;;;1.60;0.37;;;;;;;;;;20843607;28;20212;-64
2023/07/01 19:56:48;;;;;;;0.40;0.30;;;;;;;;;;20830305;28;20465;-63
2023/07/01 20:06:49;;;;;;;0.30;0.30;;;;;;;;;;20805844;28;20239;-64
2023/07/01 20:16:51;;;;;;;0.37;0.30;;;;;;;;;;20781288;28;20249;-63
2023/07/01 20:26:56;;;;;;;0.47;0.33;;;;;;;;;;20824733;28;20220;-64
2023/07/01 20:36:58;;;;;;;0.30;0.27;;;;;;;;;;20832119;28;20229;-63
2023/07/01 20:47:00;;;;;;;0.47;0.40;;;;;;;;;;20809365;28;20256;-63
2023/07/01 20:57:02;;;;;;;0.93;0.40;;;;;;;;;;20827429;22;20228;-75
2023/07/01 21:07:08;;;;;;;0.33;0.30;;;;;;;;;;20930659;28;20282;-74
2023/07/01 21:17:15;;;;;;;0.73;0.40;;;;;;;;;;20860879;28;20217;-74
2023/07/01 21:27:38;;;;;;;0.90;0.50;;;21.00;99.90;;;;;;20824342;28;20207;-75
2023/07/01 21:37:41;;;;;;;0.77;0.60;;;;;;;;;;20864684;28;20969;-75
2023/07/01 21:47:43;;;;;;;0.77;0.50;;;;;;;;;;20878160;28;20309;-74
2023/07/01 21:57:52;;;;;;;2.50;0.70;;;20.80;99.90;;;;;;20894261;28;20629;-73
2023/07/01 22:07:54;;;;;;;1.23;0.67;;;;;;;;;;20823643;28;20221;-75
2023/07/01 22:17:55;;;;;;;0.80;0.50;;;;;;;;;;20823439;28;20703;-74
2023/07/01 22:27:57;;;;;;;1.17;0.60;;;;;;;;;;20891415;28;20229;-74
2023/07/01 22:37:59;;;;;;;1.07;0.60;;;;;;;;;;20856493;28;20225;-74
2023/07/01 22:48:00;;;;;;;0.37;0.33;;;;;;;;;;20821472;28;20323;-74
2023/07/01 22:58:02;;;;;;;1.80;0.73;;;;;;;;;;20821392;28;20225;-74
2023/07/01 23:08:04;;;;;;;0.93;0.50;;;;;;;;;;20819704;28;20209;-74
2023/07/01 23:18:08;;;;;;;1.00;0.60;;;;;;;;;;20816866;28;20285;-74
2023/07/01 23:28:11;;;;;;;0.60;0.43;;;;;;;;;;20851687;28;20791;-74
2023/07/01 23:38:12;;;;;;;0.83;0.53;;;;;;;;;;20846183;28;20229;-74
2023/07/01 23:48:15;;;;;;;0.67;0.47;;;;;;;;;;20816810;28;20236;-74
2023/07/01 23:58:17;;;;;;;0.80;0.40;;;;;;;;;;20844035;28;20228;-74
